createdAt,value
2016-11-04T00:02:35.054Z,5.8
2016-11-04T00:12:35.066Z,5.8
2016-11-04T00:22:35.054Z,5.8
2016-11-04T00:32:35.063Z,5.9
2016-11-04T00:42:35.059Z,5.9
2016-11-04T00:52:35.060Z,6
2016-11-04T01:02:35.058Z,6
2016-11-04T01:12:35.059Z,6
2016-11-04T01:22:35.066Z,6
2016-11-04T01:32:35.063Z,6
2016-11-04T01:42:35.066Z,6.1
2016-11-04T01:52:35.075Z,6.1
2016-11-04T02:02:35.074Z,6.1
2016-11-04T02:12:35.076Z,6.1
2016-11-04T02:22:35.076Z,6.1
2016-11-04T02:32:35.065Z,6.1
2016-11-04T02:42:35.066Z,6.1
2016-11-04T02:52:35.074Z,6
2016-11-04T03:02:35.064Z,6
2016-11-04T03:12:35.069Z,6
2016-11-04T03:22:35.085Z,5.9
2016-11-04T03:32:35.070Z,5.9
2016-11-04T03:42:35.083Z,5.8
2016-11-04T03:52:35.084Z,5.9
2016-11-04T04:02:35.081Z,5.9
2016-11-04T04:12:35.083Z,5.9
2016-11-04T04:22:35.071Z,5.8
2016-11-04T04:32:35.079Z,5.8
2016-11-04T04:42:35.089Z,5.8
2016-11-04T04:52:35.123Z,5.8
2016-11-04T05:02:35.078Z,5.7
2016-11-04T05:12:35.084Z,5.7
2016-11-04T05:22:35.092Z,5.7
2016-11-04T05:32:35.103Z,5.7
2016-11-04T05:42:35.084Z,5.7
2016-11-04T05:52:35.097Z,5.7
2016-11-04T06:02:35.089Z,5.7
2016-11-04T06:12:35.128Z,5.6
2016-11-04T06:22:35.094Z,5.6
2016-11-04T06:32:35.102Z,5.6
2016-11-04T06:42:35.096Z,5.6
2016-11-04T06:52:35.102Z,5.6
2016-11-04T07:02:35.097Z,5.7
2016-11-04T07:12:35.102Z,5.7
2016-11-04T07:22:35.095Z,5.7
2016-11-04T07:32:35.102Z,5.8
2016-11-04T07:42:35.094Z,5.8
2016-11-04T07:52:35.104Z,5.9
2016-11-04T08:02:35.096Z,5.8
2016-11-04T08:12:35.103Z,5.9
2016-11-04T08:22:35.105Z,5.9
2016-11-04T08:32:35.104Z,5.9
2016-11-04T08:42:35.101Z,5.8
2016-11-04T08:52:35.098Z,5.9
2016-11-04T09:02:35.104Z,5.9
2016-11-04T09:12:35.111Z,5.9
2016-11-04T09:22:35.108Z,6
2016-11-04T09:32:35.117Z,6
2016-11-04T09:42:35.112Z,6.1
2016-11-04T09:52:35.117Z,6.3
2016-11-04T10:02:35.121Z,6.5
2016-11-04T10:12:35.133Z,6.6
2016-11-04T10:22:35.127Z,6.6
2016-11-04T10:32:35.120Z,6.7
2016-11-04T10:42:35.130Z,6.8
2016-11-04T10:52:35.125Z,7
2016-11-04T11:02:35.128Z,7.1
2016-11-04T11:12:35.130Z,7.1
2016-11-04T11:22:35.120Z,7.1
2016-11-04T11:32:35.119Z,7.2
2016-11-04T11:42:35.129Z,7.2
2016-11-04T11:52:35.137Z,7.2
2016-11-04T12:02:35.142Z,7.4
2016-11-04T12:12:35.146Z,7.5
2016-11-04T12:22:35.138Z,7.5
2016-11-04T12:32:35.146Z,7.5
2016-11-04T12:42:35.140Z,7.7
2016-11-04T12:52:35.146Z,7.9
2016-11-04T13:02:35.147Z,8.1
2016-11-04T13:12:35.140Z,8.2
2016-11-04T13:22:35.151Z,8.3
2016-11-04T13:32:35.146Z,8.3
2016-11-04T13:42:35.147Z,8.1
2016-11-04T13:52:35.165Z,8
2016-11-04T14:02:35.147Z,7.9
2016-11-04T14:12:35.154Z,7.8
2016-11-04T14:22:35.151Z,7.8
2016-11-04T14:32:35.152Z,7.8
2016-11-04T14:42:35.151Z,7.7
2016-11-04T14:52:35.155Z,7.5
2016-11-04T15:02:35.165Z,7.4
2016-11-04T15:12:35.157Z,7.2
2016-11-04T15:22:35.211Z,7.1
2016-11-04T15:32:35.168Z,6.9
2016-11-04T15:42:35.212Z,6.7
2016-11-04T15:52:35.158Z,6.4
2016-11-04T16:02:35.181Z,6.3
2016-11-04T16:12:35.185Z,6.2
2016-11-04T16:22:35.163Z,6.2
2016-11-04T16:32:35.194Z,6.1
2016-11-04T16:42:36.659Z,5.9
2016-11-04T16:52:35.195Z,5.8
2016-11-04T17:02:35.165Z,5.7
2016-11-04T17:12:35.166Z,5.7
2016-11-04T17:22:35.180Z,5.7
2016-11-04T17:32:35.182Z,5.6
2016-11-04T17:42:36.671Z,5.6
2016-11-04T17:52:35.177Z,5.6
2016-11-04T18:02:35.176Z,5.6
2016-11-04T18:12:35.175Z,5.6
2016-11-04T18:22:35.257Z,5.6
2016-11-04T18:32:35.201Z,5.4
2016-11-04T18:42:35.202Z,5.3
2016-11-04T18:52:35.183Z,5.2
2016-11-04T19:02:35.177Z,5.2
2016-11-04T19:12:35.179Z,5.1
2016-11-04T19:22:35.177Z,5.1
2016-11-04T19:32:35.207Z,5.1
2016-11-04T19:42:35.187Z,5.1
2016-11-04T19:52:35.181Z,5.2
2016-11-04T20:02:35.178Z,5.3
2016-11-04T20:12:35.196Z,5.2
2016-11-04T20:22:35.182Z,5.2
2016-11-04T20:32:35.186Z,5.2
2016-11-04T20:42:35.196Z,5.2
2016-11-04T20:52:35.196Z,5.2
2016-11-04T21:02:35.185Z,5.2
2016-11-04T21:12:35.184Z,5.2
2016-11-04T21:22:35.192Z,5.1
2016-11-04T21:32:35.203Z,5
2016-11-04T21:42:35.255Z,5
2016-11-04T21:52:35.199Z,5
